sensor_id;sensor_type;location;lat;lon;timestamp;P1;durP1;ratioP1;P2;durP2;ratioP2
21927;SDS011;11128;51.096;17.190;2022-11-09T00:02:37;28.15;;;13.85;;
21927;SDS011;11128;51.096;17.190;2022-11-09T00:07:39;33.05;;;15.75;;
21927;SDS011;11128;51.096;17.190;2022-11-09T00:12:40;31.73;;;14.98;;
21927;SDS011;11128;51.096;17.190;2022-11-09T00:17:41;35.70;;;16.08;;
21927;SDS011;11128;51.096;17.190;2022-11-09T00:22:45;27.88;;;14.20;;
21927;SDS011;11128;51.096;17.190;2022-11-09T00:27:48;28.95;;;14.60;;
21927;SDS011;11128;51.096;17.190;2022-11-09T00:32:49;33.40;;;14.93;;
21927;SDS011;11128;51.096;17.190;2022-11-09T00:37:50;31.45;;;14.25;;
21927;SDS011;11128;51.096;17.190;2022-11-09T00:42:51;35.55;;;17.67;;
21927;SDS011;11128;51.096;17.190;2022-11-09T00:47:53;32.13;;;15.45;;
21927;SDS011;11128;51.096;17.190;2022-11-09T00:52:54;30.92;;;14.73;;
21927;SDS011;11128;51.096;17.190;2022-11-09T00:57:55;32.80;;;16.67;;
21927;SDS011;11128;51.096;17.190;2022-11-09T01:02:57;35.92;;;17.52;;
21927;SDS011;11128;51.096;17.190;2022-11-09T01:07:59;34.75;;;16.75;;
21927;SDS011;11128;51.096;17.190;2022-11-09T01:13:02;34.00;;;18.25;;
21927;SDS011;11128;51.096;17.190;2022-11-09T01:18:03;41.53;;;17.55;;
21927;SDS011;11128;51.096;17.190;2022-11-09T01:23:04;34.40;;;16.17;;
21927;SDS011;11128;51.096;17.190;2022-11-09T01:28:06;35.67;;;17.75;;
21927;SDS011;11128;51.096;17.190;2022-11-09T01:33:10;34.03;;;16.98;;
21927;SDS011;11128;51.096;17.190;2022-11-09T01:38:11;34.22;;;15.65;;
21927;SDS011;11128;51.096;17.190;2022-11-09T01:53:47;39.00;;;16.17;;
21927;SDS011;11128;51.096;17.190;2022-11-09T01:58:52;36.75;;;16.17;;
21927;SDS011;11128;51.096;17.190;2022-11-09T02:04:01;30.35;;;15.93;;
21927;SDS011;11128;51.096;17.190;2022-11-09T02:14:27;35.53;;;15.93;;
21927;SDS011;11128;51.096;17.190;2022-11-09T02:19:30;34.92;;;16.95;;
21927;SDS011;11128;51.096;17.190;2022-11-09T02:24:31;35.83;;;16.00;;
21927;SDS011;11128;51.096;17.190;2022-11-09T02:29:34;32.38;;;16.27;;
21927;SDS011;11128;51.096;17.190;2022-11-09T02:34:41;35.55;;;16.08;;
21927;SDS011;11128;51.096;17.190;2022-11-09T02:39:43;36.83;;;16.33;;
21927;SDS011;11128;51.096;17.190;2022-11-09T02:44:44;36.15;;;17.45;;
21927;SDS011;11128;51.096;17.190;2022-11-09T02:49:50;35.70;;;17.30;;
21927;SDS011;11128;51.096;17.190;2022-11-09T02:54:52;33.63;;;16.50;;
21927;SDS011;11128;51.096;17.190;2022-11-09T02:59:53;39.22;;;17.98;;
21927;SDS011;11128;51.096;17.190;2022-11-09T03:04:55;35.67;;;16.15;;
21927;SDS011;11128;51.096;17.190;2022-11-09T03:09:56;37.63;;;16.45;;
21927;SDS011;11128;51.096;17.190;2022-11-09T03:15:02;33.58;;;16.02;;
21927;SDS011;11128;51.096;17.190;2022-11-09T03:20:06;37.47;;;16.63;;
21927;SDS011;11128;51.096;17.190;2022-11-09T03:25:08;35.17;;;15.77;;
21927;SDS011;11128;51.096;17.190;2022-11-09T03:30:09;35.38;;;16.63;;
21927;SDS011;11128;51.096;17.190;2022-11-09T03:35:11;34.13;;;16.55;;
21927;SDS011;11128;51.096;17.190;2022-11-09T03:40:12;34.78;;;16.88;;
21927;SDS011;11128;51.096;17.190;2022-11-09T03:45:14;35.28;;;15.73;;
21927;SDS011;11128;51.096;17.190;2022-11-09T03:50:16;40.50;;;16.92;;
21927;SDS011;11128;51.096;17.190;2022-11-09T03:55:18;36.90;;;16.75;;
21927;SDS011;11128;51.096;17.190;2022-11-09T04:00:20;35.65;;;15.13;;
21927;SDS011;11128;51.096;17.190;2022-11-09T04:05:23;36.70;;;15.45;;
21927;SDS011;11128;51.096;17.190;2022-11-09T04:10:25;34.47;;;15.98;;
21927;SDS011;11128;51.096;17.190;2022-11-09T04:15:27;37.13;;;16.05;;
21927;SDS011;11128;51.096;17.190;2022-11-09T04:20:29;31.15;;;15.13;;
21927;SDS011;11128;51.096;17.190;2022-11-09T04:25:32;41.30;;;17.58;;
21927;SDS011;11128;51.096;17.190;2022-11-09T04:30:35;38.95;;;16.95;;
21927;SDS011;11128;51.096;17.190;2022-11-09T04:35:37;39.47;;;17.17;;
21927;SDS011;11128;51.096;17.190;2022-11-09T04:40:39;43.03;;;17.90;;
21927;SDS011;11128;51.096;17.190;2022-11-09T04:45:40;35.40;;;16.10;;
21927;SDS011;11128;51.096;17.190;2022-11-09T04:50:42;41.20;;;18.80;;
21927;SDS011;11128;51.096;17.190;2022-11-09T04:55:43;43.95;;;18.80;;
21927;SDS011;11128;51.096;17.190;2022-11-09T05:00:44;42.38;;;18.40;;
21927;SDS011;11128;51.096;17.190;2022-11-09T05:05:46;42.40;;;18.27;;
21927;SDS011;11128;51.096;17.190;2022-11-09T05:10:47;40.38;;;17.23;;
21927;SDS011;11128;51.096;17.190;2022-11-09T05:15:48;41.03;;;17.55;;
21927;SDS011;11128;51.096;17.190;2022-11-09T05:20:49;40.28;;;18.30;;
21927;SDS011;11128;51.096;17.190;2022-11-09T05:25:51;40.17;;;16.83;;
21927;SDS011;11128;51.096;17.190;2022-11-09T05:30:52;37.50;;;17.38;;
21927;SDS011;11128;51.096;17.190;2022-11-09T05:35:54;38.63;;;17.65;;
21927;SDS011;11128;51.096;17.190;2022-11-09T05:40:55;38.22;;;17.90;;
21927;SDS011;11128;51.096;17.190;2022-11-09T05:45:56;44.90;;;18.73;;
21927;SDS011;11128;51.096;17.190;2022-11-09T05:51:01;39.72;;;17.67;;
21927;SDS011;11128;51.096;17.190;2022-11-09T05:56:04;45.33;;;20.10;;
21927;SDS011;11128;51.096;17.190;2022-11-09T06:01:11;41.63;;;18.55;;
21927;SDS011;11128;51.096;17.190;2022-11-09T06:06:15;35.97;;;17.80;;
21927;SDS011;11128;51.096;17.190;2022-11-09T06:11:16;40.40;;;18.40;;
21927;SDS011;11128;51.096;17.190;2022-11-09T06:16:18;45.72;;;18.38;;
21927;SDS011;11128;51.096;17.190;2022-11-09T06:21:19;42.47;;;17.90;;
21927;SDS011;11128;51.096;17.190;2022-11-09T06:26:21;36.65;;;17.20;;
21927;SDS011;11128;51.096;17.190;2022-11-09T06:31:22;39.97;;;17.42;;
21927;SDS011;11128;51.096;17.190;2022-11-09T06:36:23;41.65;;;17.75;;
21927;SDS011;11128;51.096;17.190;2022-11-09T06:41:24;40.55;;;18.70;;
21927;SDS011;11128;51.096;17.190;2022-11-09T06:46:26;42.75;;;17.08;;
21927;SDS011;11128;51.096;17.190;2022-11-09T06:51:28;38.97;;;17.20;;
21927;SDS011;11128;51.096;17.190;2022-11-09T06:56:29;43.22;;;18.27;;
21927;SDS011;11128;51.096;17.190;2022-11-09T07:01:31;38.65;;;17.33;;
21927;SDS011;11128;51.096;17.190;2022-11-09T07:06:32;40.03;;;17.50;;
21927;SDS011;11128;51.096;17.190;2022-11-09T07:11:33;38.67;;;18.70;;
21927;SDS011;11128;51.096;17.190;2022-11-09T07:16:35;48.08;;;18.77;;
21927;SDS011;11128;51.096;17.190;2022-11-09T07:21:37;42.45;;;19.60;;
21927;SDS011;11128;51.096;17.190;2022-11-09T07:26:38;41.67;;;19.63;;
21927;SDS011;11128;51.096;17.190;2022-11-09T07:31:40;38.85;;;18.33;;
21927;SDS011;11128;51.096;17.190;2022-11-09T07:36:41;39.40;;;17.48;;
21927;SDS011;11128;51.096;17.190;2022-11-09T07:41:43;40.67;;;19.10;;
21927;SDS011;11128;51.096;17.190;2022-11-09T07:46:48;41.40;;;17.67;;
21927;SDS011;11128;51.096;17.190;2022-11-09T07:51:50;38.75;;;17.95;;
21927;SDS011;11128;51.096;17.190;2022-11-09T07:56:53;35.00;;;16.88;;
21927;SDS011;11128;51.096;17.190;2022-11-09T08:01:54;35.25;;;17.05;;
21927;SDS011;11128;51.096;17.190;2022-11-09T08:06:56;40.08;;;17.05;;
21927;SDS011;11128;51.096;17.190;2022-11-09T08:11:57;37.75;;;16.33;;
21927;SDS011;11128;51.096;17.190;2022-11-09T08:16:58;36.25;;;17.70;;
21927;SDS011;11128;51.096;17.190;2022-11-09T08:21:59;37.88;;;17.48;;
21927;SDS011;11128;51.096;17.190;2022-11-09T08:27:00;36.45;;;17.95;;
21927;SDS011;11128;51.096;17.190;2022-11-09T08:32:04;36.05;;;17.33;;
21927;SDS011;11128;51.096;17.190;2022-11-09T08:37:06;32.50;;;14.93;;
21927;SDS011;11128;51.096;17.190;2022-11-09T08:42:07;32.05;;;15.85;;
21927;SDS011;11128;51.096;17.190;2022-11-09T08:47:08;31.05;;;15.02;;
21927;SDS011;11128;51.096;17.190;2022-11-09T08:52:09;32.25;;;15.77;;
21927;SDS011;11128;51.096;17.190;2022-11-09T08:57:11;30.00;;;15.27;;
21927;SDS011;11128;51.096;17.190;2022-11-09T09:02:12;37.17;;;15.40;;
21927;SDS011;11128;51.096;17.190;2022-11-09T09:07:14;31.10;;;14.13;;
21927;SDS011;11128;51.096;17.190;2022-11-09T09:12:16;33.20;;;14.75;;
21927;SDS011;11128;51.096;17.190;2022-11-09T09:17:17;28.83;;;14.55;;
21927;SDS011;11128;51.096;17.190;2022-11-09T09:22:19;31.25;;;14.90;;
21927;SDS011;11128;51.096;17.190;2022-11-09T09:27:20;28.42;;;14.70;;
21927;SDS011;11128;51.096;17.190;2022-11-09T09:32:22;33.13;;;14.30;;
21927;SDS011;11128;51.096;17.190;2022-11-09T09:37:23;29.48;;;15.35;;
21927;SDS011;11128;51.096;17.190;2022-11-09T09:42:33;30.88;;;14.88;;
21927;SDS011;11128;51.096;17.190;2022-11-09T09:52:59;28.42;;;14.52;;
21927;SDS011;11128;51.096;17.190;2022-11-09T09:58:19;28.23;;;13.73;;
21927;SDS011;11128;51.096;17.190;2022-11-09T10:03:25;29.65;;;13.43;;
21927;SDS011;11128;51.096;17.190;2022-11-09T10:14:00;24.80;;;12.88;;
21927;SDS011;11128;51.096;17.190;2022-11-09T10:30:09;28.30;;;13.57;;
21927;SDS011;11128;51.096;17.190;2022-11-09T10:45:35;31.17;;;14.52;;
21927;SDS011;11128;51.096;17.190;2022-11-09T10:50:50;29.73;;;14.07;;
21927;SDS011;11128;51.096;17.190;2022-11-09T11:01:00;36.75;;;15.85;;
21927;SDS011;11128;51.096;17.190;2022-11-09T11:16:26;30.40;;;19.52;;
21927;SDS011;11128;51.096;17.190;2022-11-09T11:21:31;31.02;;;17.83;;
21927;SDS011;11128;51.096;17.190;2022-11-09T11:26:44;28.15;;;12.48;;
21927;SDS011;11128;51.096;17.190;2022-11-09T11:32:10;26.95;;;13.02;;
21927;SDS011;11128;51.096;17.190;2022-11-09T11:42:56;26.00;;;12.60;;
21927;SDS011;11128;51.096;17.190;2022-11-09T11:58:55;28.15;;;15.10;;
21927;SDS011;11128;51.096;17.190;2022-11-09T12:04:24;24.95;;;13.18;;
21927;SDS011;11128;51.096;17.190;2022-11-09T12:31:57;28.17;;;14.93;;
21927;SDS011;11128;51.096;17.190;2022-11-09T12:36:32;26.15;;;13.88;;
21927;SDS011;11128;51.096;17.190;2022-11-09T12:41:35;28.48;;;13.88;;
21927;SDS011;11128;51.096;17.190;2022-11-09T12:46:39;27.05;;;14.52;;
21927;SDS011;11128;51.096;17.190;2022-11-09T12:51:44;29.52;;;15.07;;
21927;SDS011;11128;51.096;17.190;2022-11-09T12:57:20;24.58;;;13.77;;
21927;SDS011;11128;51.096;17.190;2022-11-09T13:07:39;23.98;;;12.40;;
21927;SDS011;11128;51.096;17.190;2022-11-09T13:12:46;27.67;;;13.60;;
21927;SDS011;11128;51.096;17.190;2022-11-09T13:17:50;26.75;;;15.00;;
21927;SDS011;11128;51.096;17.190;2022-11-09T13:22:57;26.77;;;14.50;;
21927;SDS011;11128;51.096;17.190;2022-11-09T13:28:00;33.42;;;17.65;;
21927;SDS011;11128;51.096;17.190;2022-11-09T13:38:16;25.67;;;16.08;;
21927;SDS011;11128;51.096;17.190;2022-11-09T13:43:29;26.23;;;15.52;;
21927;SDS011;11128;51.096;17.190;2022-11-09T13:53:52;28.98;;;15.35;;
21927;SDS011;11128;51.096;17.190;2022-11-09T13:59:14;29.48;;;14.05;;
21927;SDS011;11128;51.096;17.190;2022-11-09T14:04:37;31.65;;;16.10;;
21927;SDS011;11128;51.096;17.190;2022-11-09T14:25:16;28.48;;;14.63;;
21927;SDS011;11128;51.096;17.190;2022-11-09T14:30:21;32.60;;;15.40;;
21927;SDS011;11128;51.096;17.190;2022-11-09T14:35:31;27.50;;;14.32;;
21927;SDS011;11128;51.096;17.190;2022-11-09T14:40:35;32.13;;;15.25;;
21927;SDS011;11128;51.096;17.190;2022-11-09T14:45:36;34.88;;;15.63;;
21927;SDS011;11128;51.096;17.190;2022-11-09T14:50:53;32.58;;;17.10;;
21927;SDS011;11128;51.096;17.190;2022-11-09T14:55:59;34.05;;;16.45;;
21927;SDS011;11128;51.096;17.190;2022-11-09T15:01:19;31.67;;;16.23;;
21927;SDS011;11128;51.096;17.190;2022-11-09T15:06:24;32.33;;;15.43;;
21927;SDS011;11128;51.096;17.190;2022-11-09T15:11:36;33.00;;;16.60;;
21927;SDS011;11128;51.096;17.190;2022-11-09T15:16:39;36.80;;;16.15;;
21927;SDS011;11128;51.096;17.190;2022-11-09T15:21:41;33.90;;;16.45;;
21927;SDS011;11128;51.096;17.190;2022-11-09T15:26:46;35.65;;;15.95;;
21927;SDS011;11128;51.096;17.190;2022-11-09T15:31:59;33.28;;;15.85;;
21927;SDS011;11128;51.096;17.190;2022-11-09T15:37:17;35.20;;;15.93;;
21927;SDS011;11128;51.096;17.190;2022-11-09T15:42:20;35.42;;;16.35;;
21927;SDS011;11128;51.096;17.190;2022-11-09T15:47:29;35.35;;;17.38;;
21927;SDS011;11128;51.096;17.190;2022-11-09T15:52:35;41.03;;;17.88;;
21927;SDS011;11128;51.096;17.190;2022-11-09T15:57:37;35.78;;;17.70;;
21927;SDS011;11128;51.096;17.190;2022-11-09T16:02:38;37.95;;;17.33;;
21927;SDS011;11128;51.096;17.190;2022-11-09T16:07:47;40.45;;;17.27;;
21927;SDS011;11128;51.096;17.190;2022-11-09T16:12:49;56.20;;;26.90;;
21927;SDS011;11128;51.096;17.190;2022-11-09T16:17:53;39.58;;;19.23;;
21927;SDS011;11128;51.096;17.190;2022-11-09T16:22:55;38.22;;;18.23;;
21927;SDS011;11128;51.096;17.190;2022-11-09T16:27:57;37.85;;;18.23;;
21927;SDS011;11128;51.096;17.190;2022-11-09T16:32:58;48.20;;;19.23;;
21927;SDS011;11128;51.096;17.190;2022-11-09T16:38:01;40.25;;;18.70;;
21927;SDS011;11128;51.096;17.190;2022-11-09T16:43:03;43.40;;;20.35;;
21927;SDS011;11128;51.096;17.190;2022-11-09T16:48:04;41.67;;;19.17;;
21927;SDS011;11128;51.096;17.190;2022-11-09T16:53:11;42.95;;;19.00;;
21927;SDS011;11128;51.096;17.190;2022-11-09T16:58:13;43.90;;;18.52;;
21927;SDS011;11128;51.096;17.190;2022-11-09T17:03:14;41.58;;;18.48;;
21927;SDS011;11128;51.096;17.190;2022-11-09T17:08:16;43.53;;;20.02;;
21927;SDS011;11128;51.096;17.190;2022-11-09T17:13:18;52.72;;;23.05;;
21927;SDS011;11128;51.096;17.190;2022-11-09T17:18:19;43.40;;;20.27;;
21927;SDS011;11128;51.096;17.190;2022-11-09T17:23:20;40.92;;;18.50;;
21927;SDS011;11128;51.096;17.190;2022-11-09T17:28:22;41.33;;;18.38;;
21927;SDS011;11128;51.096;17.190;2022-11-09T17:33:24;39.35;;;19.33;;
21927;SDS011;11128;51.096;17.190;2022-11-09T17:38:26;41.35;;;18.48;;
21927;SDS011;11128;51.096;17.190;2022-11-09T17:43:29;45.85;;;19.13;;
21927;SDS011;11128;51.096;17.190;2022-11-09T17:48:35;36.42;;;18.63;;
21927;SDS011;11128;51.096;17.190;2022-11-09T17:53:38;41.72;;;19.48;;
21927;SDS011;11128;51.096;17.190;2022-11-09T17:58:40;39.65;;;19.58;;
21927;SDS011;11128;51.096;17.190;2022-11-09T18:03:42;44.42;;;19.27;;
21927;SDS011;11128;51.096;17.190;2022-11-09T18:08:44;38.67;;;19.73;;
21927;SDS011;11128;51.096;17.190;2022-11-09T18:13:46;72.40;;;32.17;;
21927;SDS011;11128;51.096;17.190;2022-11-09T18:18:48;89.68;;;38.03;;
21927;SDS011;11128;51.096;17.190;2022-11-09T18:23:50;72.80;;;33.83;;
21927;SDS011;11128;51.096;17.190;2022-11-09T18:28:53;70.82;;;33.22;;
21927;SDS011;11128;51.096;17.190;2022-11-09T18:33:56;60.22;;;27.23;;
21927;SDS011;11128;51.096;17.190;2022-11-09T18:38:57;72.10;;;31.77;;
21927;SDS011;11128;51.096;17.190;2022-11-09T18:43:58;61.47;;;29.63;;
21927;SDS011;11128;51.096;17.190;2022-11-09T18:49:00;69.18;;;31.48;;
21927;SDS011;11128;51.096;17.190;2022-11-09T18:54:02;78.47;;;36.92;;
21927;SDS011;11128;51.096;17.190;2022-11-09T18:59:04;109.90;;;43.97;;
21927;SDS011;11128;51.096;17.190;2022-11-09T19:04:05;119.68;;;49.45;;
21927;SDS011;11128;51.096;17.190;2022-11-09T19:09:10;112.22;;;44.53;;
21927;SDS011;11128;51.096;17.190;2022-11-09T19:14:35;127.45;;;46.60;;
21927;SDS011;11128;51.096;17.190;2022-11-09T19:19:40;129.68;;;46.22;;
21927;SDS011;11128;51.096;17.190;2022-11-09T19:24:42;112.13;;;44.45;;
21927;SDS011;11128;51.096;17.190;2022-11-09T19:29:45;98.97;;;39.75;;
21927;SDS011;11128;51.096;17.190;2022-11-09T19:34:47;91.40;;;38.08;;
21927;SDS011;11128;51.096;17.190;2022-11-09T19:39:49;84.82;;;37.45;;
21927;SDS011;11128;51.096;17.190;2022-11-09T19:44:51;88.85;;;36.22;;
21927;SDS011;11128;51.096;17.190;2022-11-09T19:49:54;85.50;;;38.33;;
21927;SDS011;11128;51.096;17.190;2022-11-09T19:54:57;89.70;;;37.78;;
21927;SDS011;11128;51.096;17.190;2022-11-09T19:59:59;95.55;;;40.47;;
21927;SDS011;11128;51.096;17.190;2022-11-09T20:05:00;97.75;;;40.50;;
21927;SDS011;11128;51.096;17.190;2022-11-09T20:10:02;101.15;;;42.42;;
21927;SDS011;11128;51.096;17.190;2022-11-09T20:15:05;84.30;;;37.55;;
21927;SDS011;11128;51.096;17.190;2022-11-09T20:20:07;79.57;;;34.22;;
21927;SDS011;11128;51.096;17.190;2022-11-09T20:25:10;84.47;;;36.67;;
21927;SDS011;11128;51.096;17.190;2022-11-09T20:30:11;79.03;;;34.78;;
21927;SDS011;11128;51.096;17.190;2022-11-09T20:35:14;82.70;;;38.08;;
21927;SDS011;11128;51.096;17.190;2022-11-09T20:40:15;80.82;;;36.70;;
21927;SDS011;11128;51.096;17.190;2022-11-09T20:45:17;66.22;;;29.38;;
21927;SDS011;11128;51.096;17.190;2022-11-09T20:50:19;58.78;;;26.80;;
21927;SDS011;11128;51.096;17.190;2022-11-09T20:55:20;58.67;;;26.85;;
21927;SDS011;11128;51.096;17.190;2022-11-09T21:00:24;60.42;;;26.23;;
21927;SDS011;11128;51.096;17.190;2022-11-09T21:05:26;59.97;;;27.05;;
21927;SDS011;11128;51.096;17.190;2022-11-09T21:10:28;52.05;;;25.60;;
21927;SDS011;11128;51.096;17.190;2022-11-09T21:15:29;53.50;;;22.98;;
21927;SDS011;11128;51.096;17.190;2022-11-09T21:20:32;58.15;;;25.88;;
21927;SDS011;11128;51.096;17.190;2022-11-09T21:25:35;70.82;;;28.85;;
21927;SDS011;11128;51.096;17.190;2022-11-09T21:36:17;53.70;;;24.25;;
21927;SDS011;11128;51.096;17.190;2022-11-09T21:41:19;57.75;;;25.88;;
21927;SDS011;11128;51.096;17.190;2022-11-09T21:46:39;55.78;;;23.63;;
21927;SDS011;11128;51.096;17.190;2022-11-09T21:51:42;49.97;;;23.17;;
21927;SDS011;11128;51.096;17.190;2022-11-09T21:56:43;55.78;;;23.85;;
21927;SDS011;11128;51.096;17.190;2022-11-09T22:01:46;58.70;;;25.70;;
21927;SDS011;11128;51.096;17.190;2022-11-09T22:06:48;50.08;;;23.63;;
21927;SDS011;11128;51.096;17.190;2022-11-09T22:11:49;57.80;;;25.75;;
21927;SDS011;11128;51.096;17.190;2022-11-09T22:17:09;73.47;;;29.97;;
21927;SDS011;11128;51.096;17.190;2022-11-09T22:22:12;61.40;;;27.48;;
21927;SDS011;11128;51.096;17.190;2022-11-09T22:27:14;64.25;;;27.92;;
21927;SDS011;11128;51.096;17.190;2022-11-09T22:32:16;57.92;;;25.48;;
21927;SDS011;11128;51.096;17.190;2022-11-09T22:37:17;57.05;;;26.63;;
21927;SDS011;11128;51.096;17.190;2022-11-09T22:42:19;62.20;;;29.30;;
21927;SDS011;11128;51.096;17.190;2022-11-09T22:47:21;56.47;;;25.27;;
21927;SDS011;11128;51.096;17.190;2022-11-09T22:52:22;53.25;;;24.05;;
21927;SDS011;11128;51.096;17.190;2022-11-09T22:57:23;53.28;;;22.98;;
21927;SDS011;11128;51.096;17.190;2022-11-09T23:02:25;45.08;;;21.08;;
21927;SDS011;11128;51.096;17.190;2022-11-09T23:07:26;42.05;;;19.85;;
21927;SDS011;11128;51.096;17.190;2022-11-09T23:12:28;42.47;;;19.33;;
21927;SDS011;11128;51.096;17.190;2022-11-09T23:17:35;45.45;;;20.17;;
21927;SDS011;11128;51.096;17.190;2022-11-09T23:22:55;42.50;;;19.17;;
21927;SDS011;11128;51.096;17.190;2022-11-09T23:27:57;41.90;;;18.40;;
21927;SDS011;11128;51.096;17.190;2022-11-09T23:33:00;43.65;;;18.30;;
21927;SDS011;11128;51.096;17.190;2022-11-09T23:38:03;40.65;;;17.60;;
21927;SDS011;11128;51.096;17.190;2022-11-09T23:43:07;40.40;;;17.88;;
21927;SDS011;11128;51.096;17.190;2022-11-09T23:48:16;38.95;;;17.77;;
21927;SDS011;11128;51.096;17.190;2022-11-09T23:53:18;40.28;;;17.10;;
21927;SDS011;11128;51.096;17.190;2022-11-09T23:58:20;36.85;;;17.60;;
